sensor_id;sensor_type;location;lat;lon;timestamp;P1;durP1;ratioP1;P2;durP2;ratioP2
43527;SDS011;52359;42.658;23.320;2023-07-13T00:01:11;17.20;;;5.88;;
43527;SDS011;52359;42.658;23.320;2023-07-13T00:03:37;18.38;;;6.57;;
43527;SDS011;52359;42.658;23.320;2023-07-13T00:06:06;20.27;;;5.93;;
43527;SDS011;52359;42.658;23.320;2023-07-13T00:08:32;15.98;;;5.30;;
43527;SDS011;52359;42.658;23.320;2023-07-13T00:10:59;18.10;;;5.57;;
43527;SDS011;52359;42.658;23.320;2023-07-13T00:13:25;8.98;;;5.40;;
43527;SDS011;52359;42.658;23.320;2023-07-13T00:15:51;21.10;;;5.75;;
43527;SDS011;52359;42.658;23.320;2023-07-13T00:18:19;15.95;;;4.75;;
43527;SDS011;52359;42.658;23.320;2023-07-13T00:20:45;16.92;;;5.82;;
43527;SDS011;52359;42.658;23.320;2023-07-13T00:23:11;8.45;;;4.32;;
43527;SDS011;52359;42.658;23.320;2023-07-13T00:25:37;13.93;;;5.15;;
43527;SDS011;52359;42.658;23.320;2023-07-13T00:28:03;9.23;;;5.55;;
43527;SDS011;52359;42.658;23.320;2023-07-13T00:30:29;12.57;;;5.80;;
43527;SDS011;52359;42.658;23.320;2023-07-13T00:32:54;18.65;;;4.95;;
43527;SDS011;52359;42.658;23.320;2023-07-13T00:35:21;17.80;;;5.78;;
43527;SDS011;52359;42.658;23.320;2023-07-13T00:37:46;13.27;;;5.18;;
43527;SDS011;52359;42.658;23.320;2023-07-13T00:40:13;21.45;;;5.95;;
43527;SDS011;52359;42.658;23.320;2023-07-13T00:42:39;14.32;;;5.55;;
43527;SDS011;52359;42.658;23.320;2023-07-13T00:47:37;7.97;;;4.68;;
43527;SDS011;52359;42.658;23.320;2023-07-13T00:50:04;12.82;;;5.30;;
43527;SDS011;52359;42.658;23.320;2023-07-13T00:52:33;14.60;;;5.55;;
43527;SDS011;52359;42.658;23.320;2023-07-13T00:55:01;20.05;;;5.80;;
43527;SDS011;52359;42.658;23.320;2023-07-13T00:57:28;16.95;;;5.20;;
43527;SDS011;52359;42.658;23.320;2023-07-13T00:59:54;9.05;;;4.90;;
43527;SDS011;52359;42.658;23.320;2023-07-13T01:02:23;12.55;;;4.72;;
43527;SDS011;52359;42.658;23.320;2023-07-13T01:04:50;9.18;;;5.13;;
43527;SDS011;52359;42.658;23.320;2023-07-13T01:07:16;17.13;;;5.53;;
43527;SDS011;52359;42.658;23.320;2023-07-13T01:09:44;8.43;;;4.93;;
43527;SDS011;52359;42.658;23.320;2023-07-13T01:12:10;11.30;;;4.90;;
43527;SDS011;52359;42.658;23.320;2023-07-13T01:14:36;11.52;;;5.90;;
43527;SDS011;52359;42.658;23.320;2023-07-13T01:17:02;10.55;;;5.55;;
43527;SDS011;52359;42.658;23.320;2023-07-13T01:22:06;8.73;;;5.47;;
43527;SDS011;52359;42.658;23.320;2023-07-13T01:24:37;15.25;;;5.40;;
43527;SDS011;52359;42.658;23.320;2023-07-13T01:27:04;12.13;;;5.07;;
43527;SDS011;52359;42.658;23.320;2023-07-13T01:29:31;13.10;;;5.53;;
43527;SDS011;52359;42.658;23.320;2023-07-13T01:31:58;16.33;;;6.47;;
43527;SDS011;52359;42.658;23.320;2023-07-13T01:34:25;12.40;;;5.90;;
43527;SDS011;52359;42.658;23.320;2023-07-13T01:36:52;16.00;;;5.03;;
43527;SDS011;52359;42.658;23.320;2023-07-13T01:39:19;10.85;;;5.50;;
43527;SDS011;52359;42.658;23.320;2023-07-13T01:41:48;9.18;;;5.22;;
43527;SDS011;52359;42.658;23.320;2023-07-13T01:44:14;11.73;;;4.88;;
43527;SDS011;52359;42.658;23.320;2023-07-13T01:46:40;8.93;;;4.97;;
43527;SDS011;52359;42.658;23.320;2023-07-13T01:49:07;8.25;;;5.47;;
43527;SDS011;52359;42.658;23.320;2023-07-13T01:51:33;12.40;;;5.45;;
43527;SDS011;52359;42.658;23.320;2023-07-13T01:54:07;13.38;;;5.78;;
43527;SDS011;52359;42.658;23.320;2023-07-13T01:56:32;13.07;;;5.28;;
43527;SDS011;52359;42.658;23.320;2023-07-13T01:59:01;9.98;;;5.22;;
43527;SDS011;52359;42.658;23.320;2023-07-13T02:01:27;10.82;;;5.35;;
43527;SDS011;52359;42.658;23.320;2023-07-13T02:03:53;17.27;;;6.10;;
43527;SDS011;52359;42.658;23.320;2023-07-13T02:06:18;12.10;;;5.47;;
43527;SDS011;52359;42.658;23.320;2023-07-13T02:08:44;10.75;;;5.95;;
43527;SDS011;52359;42.658;23.320;2023-07-13T02:11:33;21.55;;;6.72;;
43527;SDS011;52359;42.658;23.320;2023-07-13T02:14:32;21.05;;;6.72;;
43527;SDS011;52359;42.658;23.320;2023-07-13T02:16:58;18.80;;;6.28;;
43527;SDS011;52359;42.658;23.320;2023-07-13T02:19:24;14.88;;;6.43;;
43527;SDS011;52359;42.658;23.320;2023-07-13T02:21:50;13.88;;;5.82;;
43527;SDS011;52359;42.658;23.320;2023-07-13T02:24:15;19.27;;;6.60;;
43527;SDS011;52359;42.658;23.320;2023-07-13T02:26:44;14.98;;;6.18;;
43527;SDS011;52359;42.658;23.320;2023-07-13T02:29:10;13.10;;;6.15;;
43527;SDS011;52359;42.658;23.320;2023-07-13T02:31:36;11.15;;;5.32;;
43527;SDS011;52359;42.658;23.320;2023-07-13T02:34:02;10.88;;;6.57;;
43527;SDS011;52359;42.658;23.320;2023-07-13T02:36:29;19.92;;;6.20;;
43527;SDS011;52359;42.658;23.320;2023-07-13T02:38:55;17.08;;;6.30;;
43527;SDS011;52359;42.658;23.320;2023-07-13T02:41:20;10.38;;;5.82;;
43527;SDS011;52359;42.658;23.320;2023-07-13T02:43:48;12.25;;;5.43;;
43527;SDS011;52359;42.658;23.320;2023-07-13T02:46:16;10.80;;;6.32;;
43527;SDS011;52359;42.658;23.320;2023-07-13T02:48:42;9.10;;;5.32;;
43527;SDS011;52359;42.658;23.320;2023-07-13T02:51:08;12.75;;;6.57;;
43527;SDS011;52359;42.658;23.320;2023-07-13T02:53:34;12.85;;;5.97;;
43527;SDS011;52359;42.658;23.320;2023-07-13T02:56:01;14.25;;;5.93;;
43527;SDS011;52359;42.658;23.320;2023-07-13T02:58:27;15.27;;;6.65;;
43527;SDS011;52359;42.658;23.320;2023-07-13T03:00:53;17.77;;;5.80;;
43527;SDS011;52359;42.658;23.320;2023-07-13T03:03:19;18.35;;;6.18;;
43527;SDS011;52359;42.658;23.320;2023-07-13T03:05:45;9.27;;;5.70;;
43527;SDS011;52359;42.658;23.320;2023-07-13T03:08:15;18.35;;;6.28;;
43527;SDS011;52359;42.658;23.320;2023-07-13T03:10:43;12.95;;;5.88;;
43527;SDS011;52359;42.658;23.320;2023-07-13T03:13:09;15.38;;;6.63;;
43527;SDS011;52359;42.658;23.320;2023-07-13T03:15:34;9.65;;;6.18;;
43527;SDS011;52359;42.658;23.320;2023-07-13T03:18:00;23.52;;;7.18;;
43527;SDS011;52359;42.658;23.320;2023-07-13T03:20:25;15.23;;;5.90;;
43527;SDS011;52359;42.658;23.320;2023-07-13T03:22:54;15.68;;;7.40;;
43527;SDS011;52359;42.658;23.320;2023-07-13T03:25:20;19.98;;;6.68;;
43527;SDS011;52359;42.658;23.320;2023-07-13T03:27:46;23.58;;;7.82;;
43527;SDS011;52359;42.658;23.320;2023-07-13T03:30:12;15.98;;;7.28;;
43527;SDS011;52359;42.658;23.320;2023-07-13T03:32:38;21.20;;;7.82;;
43527;SDS011;52359;42.658;23.320;2023-07-13T03:35:04;22.05;;;7.00;;
43527;SDS011;52359;42.658;23.320;2023-07-13T03:37:30;13.63;;;5.85;;
43527;SDS011;52359;42.658;23.320;2023-07-13T03:39:56;23.35;;;7.15;;
43527;SDS011;52359;42.658;23.320;2023-07-13T03:42:26;27.50;;;7.60;;
43527;SDS011;52359;42.658;23.320;2023-07-13T03:44:56;24.67;;;7.88;;
43527;SDS011;52359;42.658;23.320;2023-07-13T03:47:24;30.95;;;8.52;;
43527;SDS011;52359;42.658;23.320;2023-07-13T03:49:50;22.52;;;7.72;;
43527;SDS011;52359;42.658;23.320;2023-07-13T03:52:22;18.35;;;7.32;;
43527;SDS011;52359;42.658;23.320;2023-07-13T03:54:58;14.98;;;6.00;;
43527;SDS011;52359;42.658;23.320;2023-07-13T03:58:23;25.80;;;6.70;;
43527;SDS011;52359;42.658;23.320;2023-07-13T04:00:52;13.65;;;6.85;;
43527;SDS011;52359;42.658;23.320;2023-07-13T04:03:18;14.68;;;6.78;;
43527;SDS011;52359;42.658;23.320;2023-07-13T04:05:44;18.98;;;6.78;;
43527;SDS011;52359;42.658;23.320;2023-07-13T04:08:11;15.57;;;7.00;;
43527;SDS011;52359;42.658;23.320;2023-07-13T04:10:37;26.17;;;7.00;;
43527;SDS011;52359;42.658;23.320;2023-07-13T04:13:03;24.70;;;8.02;;
43527;SDS011;52359;42.658;23.320;2023-07-13T04:15:30;19.88;;;7.40;;
43527;SDS011;52359;42.658;23.320;2023-07-13T04:17:56;21.98;;;7.68;;
43527;SDS011;52359;42.658;23.320;2023-07-13T04:20:22;18.55;;;8.23;;
43527;SDS011;52359;42.658;23.320;2023-07-13T04:22:49;21.52;;;9.27;;
43527;SDS011;52359;42.658;23.320;2023-07-13T04:25:15;26.40;;;11.65;;
43527;SDS011;52359;42.658;23.320;2023-07-13T04:27:40;19.83;;;9.00;;
43527;SDS011;52359;42.658;23.320;2023-07-13T04:30:06;19.95;;;9.38;;
43527;SDS011;52359;42.658;23.320;2023-07-13T04:32:32;25.17;;;9.20;;
43527;SDS011;52359;42.658;23.320;2023-07-13T04:34:58;30.73;;;9.95;;
43527;SDS011;52359;42.658;23.320;2023-07-13T04:37:24;19.02;;;10.38;;
43527;SDS011;52359;42.658;23.320;2023-07-13T04:39:51;13.98;;;8.70;;
43527;SDS011;52359;42.658;23.320;2023-07-13T04:42:30;19.33;;;9.23;;
43527;SDS011;52359;42.658;23.320;2023-07-13T04:45:40;18.55;;;8.15;;
43527;SDS011;52359;42.658;23.320;2023-07-13T04:48:06;19.60;;;8.68;;
43527;SDS011;52359;42.658;23.320;2023-07-13T04:50:32;18.20;;;9.02;;
43527;SDS011;52359;42.658;23.320;2023-07-13T04:52:58;21.98;;;10.70;;
43527;SDS011;52359;42.658;23.320;2023-07-13T04:55:24;21.85;;;12.15;;
43527;SDS011;52359;42.658;23.320;2023-07-13T04:57:51;20.52;;;10.60;;
43527;SDS011;52359;42.658;23.320;2023-07-13T05:00:17;20.08;;;9.25;;
43527;SDS011;52359;42.658;23.320;2023-07-13T05:02:44;16.65;;;9.93;;
43527;SDS011;52359;42.658;23.320;2023-07-13T05:05:11;17.60;;;10.60;;
43527;SDS011;52359;42.658;23.320;2023-07-13T05:07:37;18.98;;;9.95;;
43527;SDS011;52359;42.658;23.320;2023-07-13T05:10:03;22.67;;;10.05;;
43527;SDS011;52359;42.658;23.320;2023-07-13T05:12:29;19.52;;;10.15;;
43527;SDS011;52359;42.658;23.320;2023-07-13T05:14:56;17.70;;;11.45;;
43527;SDS011;52359;42.658;23.320;2023-07-13T05:17:22;31.40;;;11.20;;
43527;SDS011;52359;42.658;23.320;2023-07-13T05:19:48;16.10;;;10.90;;
43527;SDS011;52359;42.658;23.320;2023-07-13T05:22:14;18.40;;;11.75;;
43527;SDS011;52359;42.658;23.320;2023-07-13T05:24:40;20.92;;;10.63;;
43527;SDS011;52359;42.658;23.320;2023-07-13T05:27:06;19.20;;;11.00;;
43527;SDS011;52359;42.658;23.320;2023-07-13T05:29:32;17.63;;;10.57;;
43527;SDS011;52359;42.658;23.320;2023-07-13T05:31:58;20.13;;;12.27;;
43527;SDS011;52359;42.658;23.320;2023-07-13T05:34:24;28.02;;;11.27;;
43527;SDS011;52359;42.658;23.320;2023-07-13T05:36:51;15.63;;;10.57;;
43527;SDS011;52359;42.658;23.320;2023-07-13T05:39:18;27.98;;;12.40;;
43527;SDS011;52359;42.658;23.320;2023-07-13T05:41:44;19.63;;;11.52;;
43527;SDS011;52359;42.658;23.320;2023-07-13T05:44:10;32.40;;;12.82;;
43527;SDS011;52359;42.658;23.320;2023-07-13T05:46:36;24.30;;;9.60;;
43527;SDS011;52359;42.658;23.320;2023-07-13T05:49:02;30.45;;;10.40;;
43527;SDS011;52359;42.658;23.320;2023-07-13T05:51:28;19.52;;;10.27;;
43527;SDS011;52359;42.658;23.320;2023-07-13T05:53:54;18.67;;;10.50;;
43527;SDS011;52359;42.658;23.320;2023-07-13T05:56:20;24.27;;;10.80;;
43527;SDS011;52359;42.658;23.320;2023-07-13T05:58:47;14.50;;;10.75;;
43527;SDS011;52359;42.658;23.320;2023-07-13T06:01:14;23.95;;;11.30;;
43527;SDS011;52359;42.658;23.320;2023-07-13T06:03:40;21.58;;;11.45;;
43527;SDS011;52359;42.658;23.320;2023-07-13T06:06:07;17.60;;;10.25;;
43527;SDS011;52359;42.658;23.320;2023-07-13T06:08:34;16.17;;;8.77;;
43527;SDS011;52359;42.658;23.320;2023-07-13T06:11:07;12.52;;;8.55;;
43527;SDS011;52359;42.658;23.320;2023-07-13T06:13:33;21.77;;;10.00;;
43527;SDS011;52359;42.658;23.320;2023-07-13T06:16:00;14.63;;;9.13;;
43527;SDS011;52359;42.658;23.320;2023-07-13T06:18:29;17.50;;;8.77;;
43527;SDS011;52359;42.658;23.320;2023-07-13T06:20:55;22.10;;;8.85;;
43527;SDS011;52359;42.658;23.320;2023-07-13T06:23:21;22.05;;;9.45;;
43527;SDS011;52359;42.658;23.320;2023-07-13T06:25:48;14.52;;;10.02;;
43527;SDS011;52359;42.658;23.320;2023-07-13T06:28:14;19.25;;;9.45;;
43527;SDS011;52359;42.658;23.320;2023-07-13T06:30:40;19.92;;;9.38;;
43527;SDS011;52359;42.658;23.320;2023-07-13T06:33:06;24.75;;;8.73;;
43527;SDS011;52359;42.658;23.320;2023-07-13T06:35:32;15.40;;;9.82;;
43527;SDS011;52359;42.658;23.320;2023-07-13T06:37:58;16.90;;;9.90;;
43527;SDS011;52359;42.658;23.320;2023-07-13T06:40:24;19.55;;;9.25;;
43527;SDS011;52359;42.658;23.320;2023-07-13T06:42:50;18.42;;;10.43;;
43527;SDS011;52359;42.658;23.320;2023-07-13T06:45:16;26.77;;;9.32;;
43527;SDS011;52359;42.658;23.320;2023-07-13T06:47:42;23.55;;;9.95;;
43527;SDS011;52359;42.658;23.320;2023-07-13T06:50:09;13.05;;;9.20;;
43527;SDS011;52359;42.658;23.320;2023-07-13T06:52:35;13.10;;;8.73;;
43527;SDS011;52359;42.658;23.320;2023-07-13T06:55:01;17.27;;;8.00;;
43527;SDS011;52359;42.658;23.320;2023-07-13T06:57:27;13.38;;;7.63;;
43527;SDS011;52359;42.658;23.320;2023-07-13T06:59:53;23.80;;;8.70;;
43527;SDS011;52359;42.658;23.320;2023-07-13T07:02:19;15.30;;;8.63;;
43527;SDS011;52359;42.658;23.320;2023-07-13T07:04:45;12.13;;;8.15;;
43527;SDS011;52359;42.658;23.320;2023-07-13T07:07:11;16.10;;;8.20;;
43527;SDS011;52359;42.658;23.320;2023-07-13T07:09:37;12.18;;;7.88;;
43527;SDS011;52359;42.658;23.320;2023-07-13T07:12:03;13.60;;;7.90;;
43527;SDS011;52359;42.658;23.320;2023-07-13T07:14:30;10.55;;;7.53;;
43527;SDS011;52359;42.658;23.320;2023-07-13T07:16:56;17.73;;;8.77;;
43527;SDS011;52359;42.658;23.320;2023-07-13T07:19:23;13.75;;;7.90;;
43527;SDS011;52359;42.658;23.320;2023-07-13T07:21:49;17.30;;;7.05;;
43527;SDS011;52359;42.658;23.320;2023-07-13T07:24:15;15.35;;;7.18;;
43527;SDS011;52359;42.658;23.320;2023-07-13T07:26:41;10.15;;;7.13;;
43527;SDS011;52359;42.658;23.320;2023-07-13T07:29:07;16.27;;;7.72;;
43527;SDS011;52359;42.658;23.320;2023-07-13T07:31:33;12.98;;;6.93;;
43527;SDS011;52359;42.658;23.320;2023-07-13T07:33:59;14.38;;;6.35;;
43527;SDS011;52359;42.658;23.320;2023-07-13T07:36:25;15.57;;;7.43;;
43527;SDS011;52359;42.658;23.320;2023-07-13T07:38:52;12.70;;;7.47;;
43527;SDS011;52359;42.658;23.320;2023-07-13T07:41:18;17.75;;;7.05;;
43527;SDS011;52359;42.658;23.320;2023-07-13T07:43:44;12.82;;;7.38;;
43527;SDS011;52359;42.658;23.320;2023-07-13T07:46:10;14.05;;;7.22;;
43527;SDS011;52359;42.658;23.320;2023-07-13T07:48:36;15.18;;;7.75;;
43527;SDS011;52359;42.658;23.320;2023-07-13T07:51:01;18.00;;;8.02;;
43527;SDS011;52359;42.658;23.320;2023-07-13T07:53:27;13.32;;;6.82;;
43527;SDS011;52359;42.658;23.320;2023-07-13T07:55:53;16.65;;;7.85;;
43527;SDS011;52359;42.658;23.320;2023-07-13T07:58:18;15.90;;;7.95;;
43527;SDS011;52359;42.658;23.320;2023-07-13T08:00:44;16.42;;;7.43;;
43527;SDS011;52359;42.658;23.320;2023-07-13T08:03:10;15.23;;;7.30;;
43527;SDS011;52359;42.658;23.320;2023-07-13T08:05:36;19.20;;;6.95;;
43527;SDS011;52359;42.658;23.320;2023-07-13T08:08:02;13.90;;;8.68;;
43527;SDS011;52359;42.658;23.320;2023-07-13T08:10:28;19.77;;;8.05;;
43527;SDS011;52359;42.658;23.320;2023-07-13T08:12:54;17.95;;;7.40;;
43527;SDS011;52359;42.658;23.320;2023-07-13T08:15:20;9.20;;;7.18;;
43527;SDS011;52359;42.658;23.320;2023-07-13T08:17:50;20.75;;;7.68;;
43527;SDS011;52359;42.658;23.320;2023-07-13T08:20:16;13.95;;;7.35;;
43527;SDS011;52359;42.658;23.320;2023-07-13T08:22:42;17.52;;;7.75;;
43527;SDS011;52359;42.658;23.320;2023-07-13T08:25:08;18.70;;;6.60;;
43527;SDS011;52359;42.658;23.320;2023-07-13T08:27:34;15.93;;;6.97;;
43527;SDS011;52359;42.658;23.320;2023-07-13T08:29:59;21.73;;;7.53;;
43527;SDS011;52359;42.658;23.320;2023-07-13T08:32:25;22.15;;;8.70;;
43527;SDS011;52359;42.658;23.320;2023-07-13T08:34:51;15.38;;;7.55;;
43527;SDS011;52359;42.658;23.320;2023-07-13T08:37:17;14.55;;;7.25;;
43527;SDS011;52359;42.658;23.320;2023-07-13T08:39:43;14.40;;;8.30;;
43527;SDS011;52359;42.658;23.320;2023-07-13T08:42:14;14.65;;;7.38;;
43527;SDS011;52359;42.658;23.320;2023-07-13T08:47:11;16.70;;;6.55;;
43527;SDS011;52359;42.658;23.320;2023-07-13T08:49:38;18.98;;;6.57;;
43527;SDS011;52359;42.658;23.320;2023-07-13T08:52:17;17.88;;;7.22;;
43527;SDS011;52359;42.658;23.320;2023-07-13T08:54:49;12.93;;;6.93;;
43527;SDS011;52359;42.658;23.320;2023-07-13T08:57:30;15.15;;;7.03;;
43527;SDS011;52359;42.658;23.320;2023-07-13T08:59:57;11.68;;;6.88;;
43527;SDS011;52359;42.658;23.320;2023-07-13T09:02:44;12.93;;;6.93;;
43527;SDS011;52359;42.658;23.320;2023-07-13T09:05:16;16.75;;;6.68;;
43527;SDS011;52359;42.658;23.320;2023-07-13T09:13:04;21.33;;;6.82;;
43527;SDS011;52359;42.658;23.320;2023-07-13T09:15:56;14.07;;;7.30;;
43527;SDS011;52359;42.658;23.320;2023-07-13T09:18:35;12.80;;;7.45;;
43527;SDS011;52359;42.658;23.320;2023-07-13T09:21:37;14.38;;;7.30;;
43527;SDS011;52359;42.658;23.320;2023-07-13T09:23:58;19.60;;;7.03;;
43527;SDS011;52359;42.658;23.320;2023-07-13T09:26:45;13.90;;;7.07;;
43527;SDS011;52359;42.658;23.320;2023-07-13T09:29:21;12.48;;;7.25;;
43527;SDS011;52359;42.658;23.320;2023-07-13T09:31:55;11.30;;;7.70;;
43527;SDS011;52359;42.658;23.320;2023-07-13T09:34:23;16.42;;;8.48;;
43527;SDS011;52359;42.658;23.320;2023-07-13T09:36:50;29.05;;;8.00;;
43527;SDS011;52359;42.658;23.320;2023-07-13T09:44:17;23.38;;;8.05;;
43527;SDS011;52359;42.658;23.320;2023-07-13T09:46:54;12.43;;;7.85;;
43527;SDS011;52359;42.658;23.320;2023-07-13T09:49:23;21.48;;;7.70;;
43527;SDS011;52359;42.658;23.320;2023-07-13T09:51:50;19.20;;;7.93;;
43527;SDS011;52359;42.658;23.320;2023-07-13T09:54:27;24.73;;;8.40;;
43527;SDS011;52359;42.658;23.320;2023-07-13T09:56:56;25.42;;;9.45;;
43527;SDS011;52359;42.658;23.320;2023-07-13T09:59:26;13.85;;;6.93;;
43527;SDS011;52359;42.658;23.320;2023-07-13T10:01:54;19.17;;;7.38;;
43527;SDS011;52359;42.658;23.320;2023-07-13T10:04:40;18.92;;;7.47;;
43527;SDS011;52359;42.658;23.320;2023-07-13T10:07:07;17.40;;;7.43;;
43527;SDS011;52359;42.658;23.320;2023-07-13T10:09:34;20.88;;;7.80;;
43527;SDS011;52359;42.658;23.320;2023-07-13T10:12:00;15.77;;;7.60;;
43527;SDS011;52359;42.658;23.320;2023-07-13T10:14:26;13.35;;;7.65;;
43527;SDS011;52359;42.658;23.320;2023-07-13T10:16:56;13.15;;;7.85;;
43527;SDS011;52359;42.658;23.320;2023-07-13T10:19:29;14.55;;;7.72;;
43527;SDS011;52359;42.658;23.320;2023-07-13T10:24:52;13.52;;;7.10;;
43527;SDS011;52359;42.658;23.320;2023-07-13T10:27:20;13.68;;;7.18;;
43527;SDS011;52359;42.658;23.320;2023-07-13T10:30:04;18.75;;;6.53;;
43527;SDS011;52359;42.658;23.320;2023-07-13T10:32:38;32.65;;;6.72;;
43527;SDS011;52359;42.658;23.320;2023-07-13T10:35:05;19.83;;;4.95;;
43527;SDS011;52359;42.658;23.320;2023-07-13T10:38:18;17.42;;;4.55;;
43527;SDS011;52359;42.658;23.320;2023-07-13T10:40:28;19.20;;;5.10;;
43527;SDS011;52359;42.658;23.320;2023-07-13T10:43:42;9.50;;;5.15;;
43527;SDS011;52359;42.658;23.320;2023-07-13T10:46:17;11.73;;;5.10;;
43527;SDS011;52359;42.658;23.320;2023-07-13T10:48:44;19.92;;;5.10;;
43527;SDS011;52359;42.658;23.320;2023-07-13T10:51:13;14.68;;;5.22;;
43527;SDS011;52359;42.658;23.320;2023-07-13T10:53:40;14.75;;;4.85;;
43527;SDS011;52359;42.658;23.320;2023-07-13T10:56:18;9.35;;;4.75;;
43527;SDS011;52359;42.658;23.320;2023-07-13T10:58:44;11.80;;;4.88;;
43527;SDS011;52359;42.658;23.320;2023-07-13T11:01:12;12.30;;;5.28;;
43527;SDS011;52359;42.658;23.320;2023-07-13T11:08:50;13.27;;;5.00;;
43527;SDS011;52359;42.658;23.320;2023-07-13T11:18:44;11.82;;;5.70;;
43527;SDS011;52359;42.658;23.320;2023-07-13T11:21:15;8.55;;;4.57;;
43527;SDS011;52359;42.658;23.320;2023-07-13T11:23:42;8.13;;;4.90;;
43527;SDS011;52359;42.658;23.320;2023-07-13T11:27:10;14.13;;;5.13;;
43527;SDS011;52359;42.658;23.320;2023-07-13T11:29:47;12.48;;;5.40;;
43527;SDS011;52359;42.658;23.320;2023-07-13T11:31:55;12.27;;;5.22;;
43527;SDS011;52359;42.658;23.320;2023-07-13T11:34:25;10.40;;;5.15;;
43527;SDS011;52359;42.658;23.320;2023-07-13T11:36:53;16.27;;;5.22;;
43527;SDS011;52359;42.658;23.320;2023-07-13T11:41:49;9.50;;;5.05;;
43527;SDS011;52359;42.658;23.320;2023-07-13T11:44:17;13.38;;;5.07;;
43527;SDS011;52359;42.658;23.320;2023-07-13T11:46:47;9.23;;;4.28;;
43527;SDS011;52359;42.658;23.320;2023-07-13T11:49:20;10.68;;;6.00;;
43527;SDS011;52359;42.658;23.320;2023-07-13T11:51:47;12.30;;;5.57;;
43527;SDS011;52359;42.658;23.320;2023-07-13T11:56:44;18.90;;;4.90;;
43527;SDS011;52359;42.658;23.320;2023-07-13T11:59:11;16.88;;;5.35;;
43527;SDS011;52359;42.658;23.320;2023-07-13T12:01:42;12.30;;;4.47;;
43527;SDS011;52359;42.658;23.320;2023-07-13T12:04:11;12.30;;;5.03;;
43527;SDS011;52359;42.658;23.320;2023-07-13T12:06:46;11.55;;;5.68;;
43527;SDS011;52359;42.658;23.320;2023-07-13T12:09:13;11.70;;;7.93;;
43527;SDS011;52359;42.658;23.320;2023-07-13T12:11:41;7.78;;;4.63;;
43527;SDS011;52359;42.658;23.320;2023-07-13T12:14:17;8.82;;;4.47;;
43527;SDS011;52359;42.658;23.320;2023-07-13T12:16:45;8.88;;;4.55;;
43527;SDS011;52359;42.658;23.320;2023-07-13T12:19:18;15.52;;;4.72;;
43527;SDS011;52359;42.658;23.320;2023-07-13T12:21:46;14.52;;;5.15;;
43527;SDS011;52359;42.658;23.320;2023-07-13T12:24:16;10.32;;;4.72;;
43527;SDS011;52359;42.658;23.320;2023-07-13T12:26:43;13.20;;;5.30;;
43527;SDS011;52359;42.658;23.320;2023-07-13T12:29:15;16.17;;;5.40;;
43527;SDS011;52359;42.658;23.320;2023-07-13T12:31:42;7.38;;;4.63;;
43527;SDS011;52359;42.658;23.320;2023-07-13T12:34:19;18.70;;;5.28;;
43527;SDS011;52359;42.658;23.320;2023-07-13T12:39:20;15.55;;;6.90;;
43527;SDS011;52359;42.658;23.320;2023-07-13T12:41:47;17.67;;;6.38;;
43527;SDS011;52359;42.658;23.320;2023-07-13T12:44:27;11.68;;;5.50;;
43527;SDS011;52359;42.658;23.320;2023-07-13T12:46:58;15.13;;;5.82;;
43527;SDS011;52359;42.658;23.320;2023-07-13T12:49:26;13.82;;;6.47;;
43527;SDS011;52359;42.658;23.320;2023-07-13T12:52:00;18.30;;;5.70;;
43527;SDS011;52359;42.658;23.320;2023-07-13T12:54:27;14.82;;;5.50;;
43527;SDS011;52359;42.658;23.320;2023-07-13T12:56:54;12.50;;;6.13;;
43527;SDS011;52359;42.658;23.320;2023-07-13T12:59:23;14.45;;;5.90;;
43527;SDS011;52359;42.658;23.320;2023-07-13T13:01:51;14.38;;;6.43;;
43527;SDS011;52359;42.658;23.320;2023-07-13T13:04:18;10.10;;;5.63;;
43527;SDS011;52359;42.658;23.320;2023-07-13T13:07:00;9.30;;;5.85;;
43527;SDS011;52359;42.658;23.320;2023-07-13T13:09:26;8.23;;;5.85;;
43527;SDS011;52359;42.658;23.320;2023-07-13T13:11:52;25.83;;;6.30;;
43527;SDS011;52359;42.658;23.320;2023-07-13T13:14:18;15.00;;;6.03;;
43527;SDS011;52359;42.658;23.320;2023-07-13T13:16:48;12.88;;;6.25;;
43527;SDS011;52359;42.658;23.320;2023-07-13T13:21:44;14.13;;;6.05;;
43527;SDS011;52359;42.658;23.320;2023-07-13T13:24:11;14.25;;;5.88;;
43527;SDS011;52359;42.658;23.320;2023-07-13T13:26:37;14.18;;;5.97;;
43527;SDS011;52359;42.658;23.320;2023-07-13T13:29:16;17.05;;;6.55;;
43527;SDS011;52359;42.658;23.320;2023-07-13T13:31:43;18.80;;;5.43;;
43527;SDS011;52359;42.658;23.320;2023-07-13T13:34:09;15.90;;;7.38;;
43527;SDS011;52359;42.658;23.320;2023-07-13T13:36:36;11.90;;;6.15;;
43527;SDS011;52359;42.658;23.320;2023-07-13T13:39:01;17.52;;;5.43;;
43527;SDS011;52359;42.658;23.320;2023-07-13T13:41:29;16.13;;;5.18;;
43527;SDS011;52359;42.658;23.320;2023-07-13T13:44:10;15.30;;;5.20;;
43527;SDS011;52359;42.658;23.320;2023-07-13T13:46:36;20.25;;;5.53;;
43527;SDS011;52359;42.658;23.320;2023-07-13T13:49:30;15.95;;;4.90;;
43527;SDS011;52359;42.658;23.320;2023-07-13T13:51:56;9.90;;;5.18;;
43527;SDS011;52359;42.658;23.320;2023-07-13T13:54:24;15.40;;;5.38;;
43527;SDS011;52359;42.658;23.320;2023-07-13T13:56:52;19.48;;;5.97;;
43527;SDS011;52359;42.658;23.320;2023-07-13T13:59:18;18.88;;;5.95;;
43527;SDS011;52359;42.658;23.320;2023-07-13T14:01:45;18.60;;;6.47;;
43527;SDS011;52359;42.658;23.320;2023-07-13T14:04:17;21.30;;;6.60;;
43527;SDS011;52359;42.658;23.320;2023-07-13T14:06:45;18.20;;;5.30;;
43527;SDS011;52359;42.658;23.320;2023-07-13T14:09:12;23.40;;;6.75;;
43527;SDS011;52359;42.658;23.320;2023-07-13T14:11:40;9.77;;;4.95;;
43527;SDS011;52359;42.658;23.320;2023-07-13T14:14:16;10.63;;;5.57;;
43527;SDS011;52359;42.658;23.320;2023-07-13T14:16:47;11.48;;;5.05;;
43527;SDS011;52359;42.658;23.320;2023-07-13T14:19:18;15.90;;;5.13;;
43527;SDS011;52359;42.658;23.320;2023-07-13T14:21:44;14.73;;;5.95;;
43527;SDS011;52359;42.658;23.320;2023-07-13T14:24:10;13.93;;;5.13;;
43527;SDS011;52359;42.658;23.320;2023-07-13T14:26:37;13.57;;;5.05;;
43527;SDS011;52359;42.658;23.320;2023-07-13T14:29:05;14.23;;;4.90;;
43527;SDS011;52359;42.658;23.320;2023-07-13T14:31:38;24.10;;;5.13;;
43527;SDS011;52359;42.658;23.320;2023-07-13T14:34:04;13.32;;;5.18;;
43527;SDS011;52359;42.658;23.320;2023-07-13T14:36:31;20.67;;;5.40;;
43527;SDS011;52359;42.658;23.320;2023-07-13T14:39:13;22.27;;;5.75;;
43527;SDS011;52359;42.658;23.320;2023-07-13T14:41:44;14.38;;;5.30;;
43527;SDS011;52359;42.658;23.320;2023-07-13T14:44:16;14.65;;;5.22;;
43527;SDS011;52359;42.658;23.320;2023-07-13T14:46:43;13.05;;;5.25;;
43527;SDS011;52359;42.658;23.320;2023-07-13T14:51:51;12.48;;;6.00;;
43527;SDS011;52359;42.658;23.320;2023-07-13T14:54:17;13.80;;;5.32;;
43527;SDS011;52359;42.658;23.320;2023-07-13T14:56:43;13.27;;;5.95;;
43527;SDS011;52359;42.658;23.320;2023-07-13T14:59:09;11.98;;;5.43;;
43527;SDS011;52359;42.658;23.320;2023-07-13T15:01:35;15.18;;;5.60;;
43527;SDS011;52359;42.658;23.320;2023-07-13T15:04:01;13.13;;;5.15;;
43527;SDS011;52359;42.658;23.320;2023-07-13T15:06:29;10.40;;;5.38;;
43527;SDS011;52359;42.658;23.320;2023-07-13T15:08:56;11.65;;;5.47;;
43527;SDS011;52359;42.658;23.320;2023-07-13T15:11:22;12.73;;;5.18;;
43527;SDS011;52359;42.658;23.320;2023-07-13T15:13:49;21.02;;;5.63;;
43527;SDS011;52359;42.658;23.320;2023-07-13T15:16:17;15.18;;;4.88;;